Hoegh Berlin — C6XQ4 — position and weather

sailwx.info

Track history (hours):
 
Tides and Currents Weather Stations Pressure Air Temp Water Temp Dewpoint Dewpoint Depression Visibility Wind Speed Wind Dir Waves Ship Positions

Hoegh Berlin

Last reported at 2015-Apr-03 02:05 UTC. Time now 2015-Apr-19 19:13 UTC.
Position N 32°10' E 033°05'.
Warning: this ship's position is 16 days out of date.

Length 228 m; draft 9.1 m.

Type: Cargo ship. MMSI: 311019100.

Date/timePositionNaut miles runAvg speedWind from/ knotsBaromVisibWave heightAir tempDewpointWater temp
2015-Apr-03 02:05N 32°10' E 033°05'911.6
2015-Apr-03 01:19N 32°16' E 033°12'911.8
2015-Apr-03 00:33N 32°23' E 033°20'1212.0
2015-Apr-02 23:33N 32°31' E 033°30'1211.8
2015-Apr-02 22:33N 32°39' E 033°40'1312.0
2015-Apr-02 21:30N 32°48' E 033°51'1212.3
2015-Apr-02 20:32N 32°57' E 034°01'1413.0
2015-Apr-02 19:28N 33°06' E 034°13'1213.1
2015-Apr-02 18:33N 33°15' E 034°23'113 4.3
2015-Apr-01 16:32N 34°04' E 032°21'89217.5
2015-Mar-30 13:32N 36°23' E 014°23'2017.8
2015-Mar-30 12:26N 36°29' E 014°00'50817.6
2015-Mar-29 07:33N 38°51' E 003°44'1717.1
2015-Mar-29 06:33N 38°55' E 003°23'1717.4
2015-Mar-29 05:33N 38°58' E 003°01'1817.5
2015-Mar-29 04:33N 39°02' E 002°39'1817.7
2015-Mar-29 03:33N 39°06' E 002°17'1717.2
2015-Mar-29 02:33N 39°10' E 001°55'1717.4
2015-Mar-29 01:33N 39°13' E 001°33'1817.7
2015-Mar-29 00:33N 39°16' E 001°11'1817.4
2015-Mar-28 23:31N 39°18' E 000°48'2017.5
2015-Mar-28 22:24N 39°21' E 000°23'3116.8
2015-Mar-28 20:33N 39°25' W 000°17'2 1.6
2015-Mar-28 19:32N 39°26' W 000°18'0 0.0
2015-Mar-28 18:32N 39°26' W 000°18'0 0.0
2015-Mar-28 17:32N 39°26' W 000°18'0 0.0
2015-Mar-28 16:32N 39°26' W 000°18'0 0.0
2015-Mar-28 15:32N 39°26' W 000°18'0 0.0
2015-Mar-28 14:32N 39°27' W 000°18'0 0.0
2015-Mar-28 13:29N 39°26' W 000°18'3 2.8
2015-Mar-28 12:32N 39°25' W 000°16'8012.8
2015-Mar-28 06:15N 38°05' W 000°01'1217.3
2015-Mar-28 05:33N 37°55' W 000°09'1717.0
2015-Mar-28 04:33N 37°41' W 000°21'1716.6
2015-Mar-28 03:33N 37°28' W 000°34'1717.0
2015-Mar-28 02:33N 37°16' W 000°50'1717.1
2015-Mar-28 01:33N 37°04' W 001°05'20717.2
2015-Mar-27 13:31N 35°59' W 005°10'26517.6
2015-Mar-26 22:25N 36°45' W 010°35'3216.5
2015-Mar-26 20:28N 36°53' W 011°14'58217.5
2015-Mar-25 11:13N 39°07' W 023°12'1517.6
2015-Mar-25 10:21N 39°10' W 023°32'1417.5
2015-Mar-25 09:34N 39°12' W 023°49'1917.8
2015-Mar-25 08:30N 39°15' W 024°13'1918.1
2015-Mar-25 07:26N 39°17' W 024°38'1618.0
2015-Mar-25 06:31N 39°20' W 024°59'2217.9
2015-Mar-25 05:19N 39°23' W 025°27'5417.6
2015-Mar-25 02:15N 39°31' W 026°36'2017.4
2015-Mar-25 01:07N 39°34' W 027°01'1817.7
2015-Mar-25 00:06N 39°37' W 027°24'1017.6
2015-Mar-24 23:33N 39°39' W 027°36'1817.6
2015-Mar-24 22:33N 39°41' W 027°59'1817.6
2015-Mar-24 21:33N 39°44' W 028°21'1817.6
2015-Mar-24 20:33N 39°47' W 028°44'1818.1
2015-Mar-24 19:33N 39°50' W 029°07'1817.8
2015-Mar-24 18:33N 39°52' W 029°30'  
Track history (hours):
 
Tides and Currents Weather Stations Pressure Air Temp Water Temp Dewpoint Dewpoint Depression Visibility Wind Speed Wind Dir Waves Ship Positions

Hoegh Berlin

Last reported at 2015-Apr-03 02:05 UTC. Time now 2015-Apr-19 19:13 UTC.
Position N 32°10' E 033°05'.
Warning: this ship's position is 16 days out of date.

Length 228 m; draft 9.1 m.

Type: Cargo ship. MMSI: 311019100.

Date/timePositionNaut miles runAvg speedWind from/ knotsBaromVisibWave heightAir tempDewpointWater temp
2015-Apr-03 02:05N 32°10' E 033°05'911.6
2015-Apr-03 01:19N 32°16' E 033°12'911.8
2015-Apr-03 00:33N 32°23' E 033°20'1212.0
2015-Apr-02 23:33N 32°31' E 033°30'1211.8
2015-Apr-02 22:33N 32°39' E 033°40'1312.0
2015-Apr-02 21:30N 32°48' E 033°51'1212.3
2015-Apr-02 20:32N 32°57' E 034°01'1413.0
2015-Apr-02 19:28N 33°06' E 034°13'1213.1
2015-Apr-02 18:33N 33°15' E 034°23'113 4.3
2015-Apr-01 16:32N 34°04' E 032°21'89217.5
2015-Mar-30 13:32N 36°23' E 014°23'2017.8
2015-Mar-30 12:26N 36°29' E 014°00'50817.6
2015-Mar-29 07:33N 38°51' E 003°44'1717.1
2015-Mar-29 06:33N 38°55' E 003°23'1717.4
2015-Mar-29 05:33N 38°58' E 003°01'1817.5
2015-Mar-29 04:33N 39°02' E 002°39'1817.7
2015-Mar-29 03:33N 39°06' E 002°17'1717.2
2015-Mar-29 02:33N 39°10' E 001°55'1717.4
2015-Mar-29 01:33N 39°13' E 001°33'1817.7
2015-Mar-29 00:33N 39°16' E 001°11'1817.4
2015-Mar-28 23:31N 39°18' E 000°48'2017.5
2015-Mar-28 22:24N 39°21' E 000°23'3116.8
2015-Mar-28 20:33N 39°25' W 000°17'2 1.6
2015-Mar-28 19:32N 39°26' W 000°18'0 0.0
2015-Mar-28 18:32N 39°26' W 000°18'0 0.0
2015-Mar-28 17:32N 39°26' W 000°18'0 0.0
2015-Mar-28 16:32N 39°26' W 000°18'0 0.0
2015-Mar-28 15:32N 39°26' W 000°18'0 0.0
2015-Mar-28 14:32N 39°27' W 000°18'0 0.0
2015-Mar-28 13:29N 39°26' W 000°18'3 2.8
2015-Mar-28 12:32N 39°25' W 000°16'8012.8
2015-Mar-28 06:15N 38°05' W 000°01'1217.3
2015-Mar-28 05:33N 37°55' W 000°09'1717.0
2015-Mar-28 04:33N 37°41' W 000°21'1716.6
2015-Mar-28 03:33N 37°28' W 000°34'1717.0
2015-Mar-28 02:33N 37°16' W 000°50'1717.1
2015-Mar-28 01:33N 37°04' W 001°05'20717.2
2015-Mar-27 13:31N 35°59' W 005°10'26517.6
2015-Mar-26 22:25N 36°45' W 010°35'3216.5
2015-Mar-26 20:28N 36°53' W 011°14'58217.5
2015-Mar-25 11:13N 39°07' W 023°12'1517.6
2015-Mar-25 10:21N 39°10' W 023°32'1417.5
2015-Mar-25 09:34N 39°12' W 023°49'1917.8
2015-Mar-25 08:30N 39°15' W 024°13'1918.1
2015-Mar-25 07:26N 39°17' W 024°38'1618.0
2015-Mar-25 06:31N 39°20' W 024°59'2217.9
2015-Mar-25 05:19N 39°23' W 025°27'5417.6
2015-Mar-25 02:15N 39°31' W 026°36'2017.4
2015-Mar-25 01:07N 39°34' W 027°01'1817.7
2015-Mar-25 00:06N 39°37' W 027°24'1017.6
2015-Mar-24 23:33N 39°39' W 027°36'1817.6
2015-Mar-24 22:33N 39°41' W 027°59'1817.6
2015-Mar-24 21:33N 39°44' W 028°21'1817.6
2015-Mar-24 20:33N 39°47' W 028°44'1818.1
2015-Mar-24 19:33N 39°50' W 029°07'1817.8
2015-Mar-24 18:33N 39°52' W 029°30'  

Dump ship's entire track history